Huvudsida
METAR-TAF:

METAR-TAF

Flygplatser :

Jizan, Saudiarabien

latitud: 16-54N, longitud: 042-35E, höjd: 6 m

Aktuellt väderrapport

Denna rapport gjordes för 43 minuter sedan, klockan 18:00 UTC
Vind 4 kt från nord/nordost
Temperatur 28°C
Fuktighet 70%
Tryck 1011 hPa
Sikt 10 km eller mer
Få moln på en höjd av 3000 ft

METAR: OEGN 281800Z 02004KT 9999 FEW030 28/22 Q1011 NOSIG

Tid: 21:43 (18:43 UTC)

Väderprognos

Prognos gäller från 28 kl. 12 UTC till 29 kl. 18 UTC
Vind 10 kt från väst/sydväst
Sikt: 7000 m
Spridda moln på en höjd av 3000 ft
Blir
från 28 kl. 18 UTC till 28 kl. 20 UTC
Vind 3 kt varierande vindriktning

TAF: OEGN 2812/2918 25010KT 7000 SCT030 BECMG 2818/2820 VRB03KT

Aktuella väderrapporter och prognoser från 4000 flygplatser (METAR- och TAF-rapporter).

De tillgängliga stationerna syns som gula och röda prickar på kartan.

För musen över prickarna för att se namnen på stationerna.

Klicka sedan för att få väderrapporter och prognoser.

För att ändra kartan: Klicka på de gröna knapparna med ett svart kors på för att zooma in; den gröna knappen med ett streck på för att zooma ut; eller på de gröna pilarna för angränsande kartor.


METAR-TAF: